createdAt,value
2018-05-03T00:04:15.713Z,100686
2018-05-03T00:09:07.234Z,100685
2018-05-03T00:13:58.748Z,100682
2018-05-03T00:18:50.259Z,100681
2018-05-03T00:23:41.740Z,100689
2018-05-03T00:28:33.244Z,100696
2018-05-03T00:33:24.727Z,100703
2018-05-03T00:38:16.205Z,100700
2018-05-03T00:43:07.702Z,100700
2018-05-03T00:47:59.925Z,100705
2018-05-03T00:52:51.424Z,100697
2018-05-03T00:57:42.913Z,100703
2018-05-03T01:02:34.407Z,100709
2018-05-03T01:07:25.933Z,100709
2018-05-03T01:12:17.444Z,100707
2018-05-03T01:17:08.936Z,100713
2018-05-03T01:22:00.422Z,100711
2018-05-03T01:26:52.011Z,100722
2018-05-03T01:31:43.468Z,100716
2018-05-03T01:36:35.733Z,100728
2018-05-03T01:41:27.260Z,100730
2018-05-03T01:46:18.768Z,100732
2018-05-03T01:51:11.018Z,100738
2018-05-03T01:56:03.258Z,100746
2018-05-03T02:00:55.511Z,100755
2018-05-03T02:05:47.033Z,100762
2018-05-03T02:10:38.538Z,100772
2018-05-03T02:15:30.049Z,100777
2018-05-03T02:20:22.287Z,100789
2018-05-03T02:25:14.495Z,100797
2018-05-03T02:30:06.017Z,100810
2018-05-03T02:34:57.537Z,100814
2018-05-03T02:39:49.015Z,100809
2018-05-03T02:44:40.495Z,100811
2018-05-03T02:49:32.001Z,100815
2018-05-03T02:54:24.229Z,100821
2018-05-03T02:59:34.270Z,100821
2018-05-03T03:04:50.578Z,100834
2018-05-03T03:16:01.179Z,100840
2018-05-03T03:21:18.391Z,100843
2018-05-03T03:32:26.469Z,100860
2018-05-03T03:37:36.629Z,100867
2018-05-03T03:48:06.727Z,100877
2018-05-03T03:52:58.192Z,100871
2018-05-03T03:57:49.692Z,100870
2018-05-03T04:02:41.206Z,100879
2018-05-03T04:07:32.680Z,100885
2018-05-03T04:12:24.236Z,100889
2018-05-03T04:17:15.718Z,100897
2018-05-03T04:22:25.917Z,100894
2018-05-03T04:27:18.069Z,100911
2018-05-03T04:32:09.549Z,100906
2018-05-03T04:37:01.833Z,100927
2018-05-03T04:41:53.335Z,100943
2018-05-03T04:46:45.554Z,100955
2018-05-03T04:51:37.045Z,100964
2018-05-03T04:56:28.554Z,100971
2018-05-03T05:01:20.812Z,100980
2018-05-03T05:06:12.326Z,100990
2018-05-03T05:11:04.633Z,100990
2018-05-03T05:15:56.867Z,101003
2018-05-03T05:20:48.370Z,101006
2018-05-03T05:25:40.685Z,100997
2018-05-03T05:30:32.209Z,101002
2018-05-03T05:35:23.722Z,101000
2018-05-03T05:40:15.298Z,101000
2018-05-03T05:45:06.789Z,101014
2018-05-03T05:49:58.246Z,101022
2018-05-03T05:54:49.770Z,101025
2018-05-03T05:59:41.311Z,101041
2018-05-03T06:04:32.850Z,101036
2018-05-03T06:09:24.363Z,101037
2018-05-03T06:14:15.857Z,101043
2018-05-03T06:19:08.106Z,101043
2018-05-03T06:24:00.330Z,101041
2018-05-03T06:28:51.951Z,101046
2018-05-03T06:33:43.445Z,101044
2018-05-03T06:38:34.957Z,101046
2018-05-03T06:43:27.564Z,101048
2018-05-03T06:48:19.055Z,101054
2018-05-03T06:53:11.313Z,101060
2018-05-03T06:58:03.557Z,101061
2018-05-03T07:02:55.815Z,101058
2018-05-03T07:07:47.364Z,101064
2018-05-03T07:12:38.871Z,101074
2018-05-03T07:17:31.120Z,101081
2018-05-03T07:22:23.418Z,101096
2018-05-03T07:27:15.618Z,101106
2018-05-03T07:32:07.885Z,101102
2018-05-03T07:37:00.128Z,101104
2018-05-03T07:41:52.396Z,101118
2018-05-03T07:46:43.897Z,101131
2018-05-03T07:51:35.416Z,101146
2018-05-03T07:56:26.910Z,101151
2018-05-03T08:01:18.405Z,101162
2018-05-03T08:06:10.649Z,101156
2018-05-03T08:11:02.249Z,101163
2018-05-03T08:15:53.711Z,101160
2018-05-03T08:20:45.219Z,101155
2018-05-03T08:25:36.726Z,101172
2018-05-03T08:30:28.238Z,101181
2018-05-03T08:35:20.468Z,101192
2018-05-03T08:40:12.712Z,101205
2018-05-03T08:45:04.233Z,101209
2018-05-03T08:49:56.174Z,101201
2018-05-03T08:54:47.674Z,101209
2018-05-03T08:59:39.162Z,101214
2018-05-03T09:04:30.669Z,101218
2018-05-03T09:09:22.286Z,101208
2018-05-03T09:14:13.797Z,101217
2018-05-03T09:19:05.368Z,101208
2018-05-03T09:23:56.901Z,101214
2018-05-03T09:28:48.414Z,101210
2018-05-03T09:33:39.962Z,101207
2018-05-03T09:38:31.786Z,101201
2018-05-03T09:43:23.288Z,101207
2018-05-03T09:48:15.529Z,101218
2018-05-03T09:53:08.462Z,101222
2018-05-03T09:57:59.977Z,101234
2018-05-03T10:02:51.476Z,101231
2018-05-03T10:07:43.709Z,101231
2018-05-03T10:12:36.627Z,101226
2018-05-03T10:17:28.112Z,101232
2018-05-03T10:22:20.361Z,101232
2018-05-03T10:27:12.719Z,101234
2018-05-03T10:32:05.020Z,101236
2018-05-03T10:36:56.549Z,101233
2018-05-03T10:41:48.089Z,101233
2018-05-03T10:46:39.628Z,101230
2018-05-03T10:51:31.102Z,101232
2018-05-03T10:56:22.578Z,101222
2018-05-03T11:01:14.179Z,101215
2018-05-03T11:06:07.330Z,101212
2018-05-03T11:10:58.961Z,101202
2018-05-03T11:15:50.459Z,101206
2018-05-03T11:20:42.038Z,101209
2018-05-03T11:25:33.537Z,101217
2018-05-03T11:30:25.751Z,101232
2018-05-03T11:35:17.231Z,101231
2018-05-03T11:40:08.795Z,101225
2018-05-03T11:45:00.286Z,101227
2018-05-03T11:49:51.776Z,101231
2018-05-03T11:54:44.014Z,101233
2018-05-03T11:59:36.293Z,101233
2018-05-03T12:04:27.792Z,101245
2018-05-03T12:09:19.366Z,101237
2018-05-03T12:14:10.855Z,101248
2018-05-03T12:19:02.344Z,101242
2018-05-03T12:23:53.880Z,101252
2018-05-03T12:28:45.430Z,101248
2018-05-03T12:33:36.953Z,101248
2018-05-03T12:38:28.507Z,101249
2018-05-03T12:43:19.990Z,101255
2018-05-03T12:48:12.565Z,101258
2018-05-03T12:53:04.132Z,101255
2018-05-03T12:57:55.621Z,101250
2018-05-03T13:02:47.846Z,101253
2018-05-03T13:07:39.415Z,101243
2018-05-03T13:12:30.901Z,101247
2018-05-03T13:17:23.180Z,101242
2018-05-03T13:22:15.405Z,101247
2018-05-03T13:27:06.907Z,101247
2018-05-03T13:31:58.422Z,101244
2018-05-03T13:36:49.931Z,101244
2018-05-03T13:41:42.207Z,101240
2018-05-03T13:46:33.722Z,101223
2018-05-03T13:51:26.137Z,101227
2018-05-03T13:56:17.645Z,101239
2018-05-03T14:01:09.191Z,101242
2018-05-03T14:06:00.775Z,101237
2018-05-03T14:10:53.008Z,101240
2018-05-03T14:15:45.243Z,101226
2018-05-03T14:20:36.772Z,101220
2018-05-03T14:25:28.257Z,101222
2018-05-03T14:30:19.771Z,101219
2018-05-03T14:35:11.298Z,101212
2018-05-03T14:40:03.555Z,101214
2018-05-03T14:44:55.775Z,101220
2018-05-03T14:49:47.289Z,101224
2018-05-03T14:54:38.858Z,101231
2018-05-03T14:59:30.438Z,101234
2018-05-03T15:04:21.942Z,101241
2018-05-03T15:09:14.225Z,101241
2018-05-03T15:14:05.721Z,101231
2018-05-03T15:18:57.968Z,101229
2018-05-03T15:23:50.214Z,101239
2018-05-03T15:28:41.706Z,101241
2018-05-03T15:33:33.211Z,101241
2018-05-03T15:38:24.746Z,101238
2018-05-03T15:43:16.254Z,101249
2018-05-03T15:48:07.749Z,101249
2018-05-03T15:52:59.228Z,101254
2018-05-03T15:57:51.527Z,101263
2018-05-03T16:02:43.070Z,101259
2018-05-03T16:07:34.651Z,101262
2018-05-03T16:12:26.098Z,101257
2018-05-03T16:17:17.795Z,101262
2018-05-03T16:22:09.314Z,101263
2018-05-03T16:27:00.810Z,101258
2018-05-03T16:31:52.296Z,101267
2018-05-03T16:36:43.771Z,101263
2018-05-03T16:41:36.000Z,101265
2018-05-03T16:46:28.287Z,101274
2018-05-03T16:51:19.834Z,101277
2018-05-03T16:56:11.340Z,101282
2018-05-03T17:01:03.566Z,101286
2018-05-03T17:05:55.101Z,101287
2018-05-03T17:10:46.594Z,101286
2018-05-03T17:15:38.169Z,101288
2018-05-03T17:20:30.119Z,101289
2018-05-03T17:25:22.356Z,101294
2018-05-03T17:30:13.870Z,101293
2018-05-03T17:35:05.399Z,101305
2018-05-03T17:39:56.923Z,101310
2018-05-03T17:44:48.417Z,101314
2018-05-03T17:49:40.635Z,101312
2018-05-03T17:54:32.134Z,101315
2018-05-03T17:59:23.762Z,101328
2018-05-03T18:04:16.005Z,101328
2018-05-03T18:09:07.516Z,101340
2018-05-03T18:13:59.803Z,101347
2018-05-03T18:18:51.360Z,101354
2018-05-03T18:23:42.830Z,101360
2018-05-03T18:28:35.108Z,101364
2018-05-03T18:33:26.625Z,101380
2018-05-03T18:38:18.851Z,101390
2018-05-03T18:43:11.146Z,101393
2018-05-03T18:48:02.664Z,101396
2018-05-03T18:52:54.152Z,101408
2018-05-03T18:57:45.658Z,101413
2018-05-03T19:02:37.141Z,101418
2018-05-03T19:07:28.639Z,101424
2018-05-03T19:12:21.009Z,101434
2018-05-03T19:17:12.491Z,101441
2018-05-03T19:22:04.005Z,101445
2018-05-03T19:26:56.225Z,101451
2018-05-03T19:31:48.511Z,101460
2018-05-03T19:36:40.765Z,101461
2018-05-03T19:41:33.011Z,101465
2018-05-03T19:46:25.289Z,101471
2018-05-03T19:51:16.784Z,101485
2018-05-03T19:56:08.262Z,101485
2018-05-03T20:00:59.765Z,101489
2018-05-03T20:05:51.997Z,101493
2018-05-03T20:10:43.504Z,101504
2018-05-03T20:15:35.011Z,101507
2018-05-03T20:20:26.501Z,101514
2018-05-03T20:25:18.041Z,101511
2018-05-03T20:30:10.294Z,101515
2018-05-03T20:35:02.611Z,101517
2018-05-03T20:39:54.113Z,101521
2018-05-03T20:44:45.607Z,101523
2018-05-03T20:49:37.874Z,101521
2018-05-03T20:54:30.105Z,101522
2018-05-03T20:59:23.324Z,101520
2018-05-03T21:04:14.800Z,101523
2018-05-03T21:09:06.319Z,101527
2018-05-03T21:13:57.823Z,101531
2018-05-03T21:18:49.348Z,101537
2018-05-03T21:23:40.834Z,101541
2018-05-03T21:28:32.390Z,101541
2018-05-03T21:33:23.845Z,101536
2018-05-03T21:38:15.324Z,101532
2018-05-03T21:43:06.820Z,101542
2018-05-03T21:47:58.317Z,101542
2018-05-03T21:52:50.538Z,101541
2018-05-03T21:57:42.030Z,101548
2018-05-03T22:02:33.548Z,101548
2018-05-03T22:07:25.778Z,101549
2018-05-03T22:12:17.278Z,101546
2018-05-03T22:17:08.733Z,101554
2018-05-03T22:22:00.186Z,101564
2018-05-03T22:26:52.461Z,101568
2018-05-03T22:31:43.921Z,101569
2018-05-03T22:36:35.378Z,101559
2018-05-03T22:41:26.842Z,101557
2018-05-03T22:46:19.057Z,101556
2018-05-03T22:51:10.521Z,101556
2018-05-03T22:56:02.757Z,101559
2018-05-03T23:00:55.090Z,101560
2018-05-03T23:05:46.569Z,101560
2018-05-03T23:10:38.785Z,101561
2018-05-03T23:15:30.254Z,101558
2018-05-03T23:20:22.479Z,101561
2018-05-03T23:25:13.927Z,101560
2018-05-03T23:30:06.193Z,101556
2018-05-03T23:34:57.676Z,101562
2018-05-03T23:39:49.930Z,101554
2018-05-03T23:44:41.442Z,101549
2018-05-03T23:49:32.960Z,101554
2018-05-03T23:54:24.464Z,101549
2018-05-03T23:59:16.691Z,101551
